createdAt,value
2018-07-08T07:19:52.187Z,19.20
2018-07-08T07:22:26.572Z,19.10
2018-07-08T07:24:55.214Z,19.00
2018-07-08T07:30:26.060Z,19.00
2018-07-08T07:33:02.734Z,19.40
2018-07-08T07:35:41.244Z,19.50
2018-07-08T07:38:16.115Z,19.60
2018-07-08T07:40:46.636Z,19.30
2018-07-08T07:43:15.650Z,19.00
2018-07-08T07:45:44.658Z,19.20
2018-07-08T07:48:16.347Z,19.00
2018-07-08T07:50:44.847Z,18.60
2018-07-08T07:53:13.419Z,18.90
2018-07-08T07:55:43.094Z,19.00
2018-07-08T07:58:11.762Z,19.30
2018-07-08T08:00:43.232Z,19.50
2018-07-08T08:03:12.464Z,19.50
2018-07-08T08:05:54.401Z,19.70
2018-07-08T08:08:24.112Z,19.60
2018-07-08T08:10:53.211Z,19.60
2018-07-08T08:13:23.941Z,20.00
2018-07-08T08:15:53.551Z,19.90
2018-07-08T08:18:23.368Z,20.20
2018-07-08T08:20:53.117Z,20.00
2018-07-08T08:23:31.494Z,20.10
2018-07-08T08:26:24.790Z,20.30
2018-07-08T08:29:05.593Z,20.50
2018-07-08T08:31:37.243Z,20.20
2018-07-08T08:35:12.437Z,20.40
2018-07-08T08:37:42.055Z,20.40
2018-07-08T08:40:12.484Z,20.50
2018-07-08T08:42:44.555Z,20.70
2018-07-08T08:45:14.319Z,20.80
2018-07-08T08:47:42.755Z,21.00
2018-07-08T08:50:11.995Z,21.00
2018-07-08T08:52:41.658Z,21.10
2018-07-08T08:55:15.926Z,21.00
2018-07-08T09:00:24.895Z,20.80
2018-07-08T09:02:53.702Z,21.10
2018-07-08T09:05:22.330Z,21.00
2018-07-08T09:07:52.912Z,21.20
2018-07-08T09:10:26.902Z,21.10
2018-07-08T09:12:55.489Z,21.00
2018-07-08T09:15:32.636Z,21.30
2018-07-08T09:18:01.214Z,21.30
2018-07-08T09:20:29.838Z,21.50
2018-07-08T09:23:05.865Z,21.70
2018-07-08T09:25:39.894Z,21.70
2018-07-08T09:28:14.342Z,21.80
2018-07-08T09:30:44.842Z,22.00
2018-07-08T09:33:13.488Z,22.30
2018-07-08T09:35:42.176Z,22.40
2018-07-08T09:38:15.859Z,22.20
2018-07-08T09:40:51.876Z,22.20
2018-07-08T09:43:22.450Z,22.30
2018-07-08T09:45:52.244Z,22.20
2018-07-08T09:48:20.918Z,22.20
2018-07-08T09:50:50.614Z,22.20
2018-07-08T09:53:21.156Z,22.30
2018-07-08T09:55:49.856Z,22.60
2018-07-08T09:58:19.536Z,22.70
2018-07-08T10:00:48.882Z,22.70
2018-07-08T10:03:18.816Z,22.60
2018-07-08T10:05:49.466Z,22.50
2018-07-08T10:08:18.766Z,22.70
2018-07-08T10:10:48.458Z,22.70
2018-07-08T10:13:18.425Z,22.80
2018-07-08T10:15:47.002Z,22.80
2018-07-08T10:18:19.535Z,22.70
2018-07-08T10:20:48.409Z,22.50
2018-07-08T10:25:48.390Z,23.10
2018-07-08T10:28:19.274Z,23.10
2018-07-08T10:30:48.082Z,23.20
2018-07-08T10:33:16.774Z,23.00
2018-07-08T10:36:00.640Z,22.90
2018-07-08T10:38:29.163Z,22.90
2018-07-08T10:41:00.976Z,23.00
2018-07-08T10:43:29.598Z,23.30
2018-07-08T10:46:03.218Z,23.70
2018-07-08T10:48:45.623Z,23.70
2018-07-08T10:51:26.652Z,23.40
2018-07-08T10:53:57.470Z,23.50
2018-07-08T10:56:27.117Z,23.50
2018-07-08T10:59:02.238Z,23.50
2018-07-08T11:01:34.840Z,23.90
2018-07-08T11:04:04.642Z,23.70
2018-07-08T11:06:39.072Z,24.10
2018-07-08T11:09:14.146Z,24.10
2018-07-08T11:11:54.052Z,24.20
2018-07-08T11:14:27.190Z,24.00
2018-07-08T11:19:49.312Z,23.70
2018-07-08T11:22:30.037Z,23.60
2018-07-08T11:25:00.661Z,23.80
2018-07-08T11:27:29.107Z,23.60
2018-07-08T11:29:58.726Z,23.70
2018-07-08T11:32:27.494Z,23.90
2018-07-08T11:34:58.088Z,24.30
2018-07-08T11:37:30.658Z,24.20
2018-07-08T11:40:02.603Z,24.00
2018-07-08T11:42:31.103Z,24.10
2018-07-08T11:47:35.518Z,24.10
2018-07-08T11:50:07.358Z,24.20
2018-07-08T11:52:35.922Z,23.80
2018-07-08T11:57:47.894Z,23.90
2018-07-08T12:00:24.103Z,24.20
2018-07-08T12:02:56.591Z,24.20
2018-07-08T12:05:28.145Z,24.50
2018-07-08T12:08:00.092Z,24.90
2018-07-08T12:10:34.787Z,24.40
2018-07-08T12:13:03.838Z,24.50
2018-07-08T12:15:34.826Z,24.40
2018-07-08T12:18:05.963Z,24.10
2018-07-08T12:20:38.754Z,23.80
2018-07-08T12:23:07.196Z,24.30
2018-07-08T12:25:42.217Z,24.80
2018-07-08T12:31:27.904Z,23.90
2018-07-08T12:34:01.633Z,24.40
2018-07-08T12:36:40.118Z,24.30
2018-07-08T12:39:14.749Z,24.60
2018-07-08T12:44:17.851Z,24.80
2018-07-08T12:46:59.100Z,24.80
2018-07-08T12:49:27.926Z,24.90
2018-07-08T12:52:10.548Z,24.90
2018-07-08T12:54:41.152Z,24.70
2018-07-08T12:57:13.724Z,24.60
2018-07-08T12:59:53.892Z,24.80
2018-07-08T13:02:24.475Z,24.90
2018-07-08T13:04:53.069Z,24.80
2018-07-08T13:07:22.754Z,24.50
2018-07-08T13:09:52.373Z,24.60
2018-07-08T13:12:23.008Z,24.70
2018-07-08T13:14:53.874Z,24.70
2018-07-08T13:20:19.434Z,25.10
2018-07-08T13:25:26.803Z,25.30
2018-07-08T13:27:57.187Z,25.40
2018-07-08T13:30:42.874Z,24.90
2018-07-08T13:33:12.692Z,24.80
2018-07-08T13:35:42.255Z,24.90
2018-07-08T13:38:17.499Z,24.90
2018-07-08T13:40:46.008Z,24.90
2018-07-08T13:45:43.201Z,25.00
2018-07-08T13:48:18.198Z,25.00
2018-07-08T13:50:46.849Z,25.10
2018-07-08T13:53:17.173Z,25.00
2018-07-08T13:55:45.844Z,25.10
2018-07-08T13:58:14.507Z,25.30
2018-07-08T14:00:47.452Z,25.20
2018-07-08T14:06:13.517Z,25.50
2018-07-08T14:11:40.273Z,25.40
2018-07-08T14:14:09.965Z,25.30
2018-07-08T14:16:38.588Z,25.30
2018-07-08T14:21:39.106Z,25.40
2018-07-08T14:24:12.989Z,25.50
2018-07-08T14:26:50.630Z,25.60
2018-07-08T14:29:43.189Z,25.80
2018-07-08T14:32:11.988Z,25.50
2018-07-08T14:37:31.524Z,25.70
2018-07-08T14:40:04.629Z,26.00
2018-07-08T14:42:36.800Z,25.50
2018-07-08T14:45:05.506Z,25.40
2018-07-08T14:47:37.406Z,25.50
2018-07-08T14:50:18.968Z,25.40
2018-07-08T14:52:48.686Z,25.60
2018-07-08T14:55:17.384Z,25.30
2018-07-08T14:57:51.046Z,25.40
2018-07-08T15:00:31.558Z,25.50
2018-07-08T15:03:05.278Z,24.90
2018-07-08T15:05:34.906Z,25.00
2018-07-08T15:08:08.337Z,25.30
2018-07-08T15:10:53.740Z,25.60
2018-07-08T15:13:22.785Z,25.50
2018-07-08T15:15:51.726Z,25.70
2018-07-08T15:18:20.536Z,25.60
2018-07-08T15:20:49.164Z,25.50
2018-07-08T15:23:21.488Z,25.80
2018-07-08T15:25:50.301Z,25.90
2018-07-08T15:28:19.031Z,25.70
2018-07-08T15:30:52.246Z,25.60
2018-07-08T15:33:27.180Z,25.40
2018-07-08T15:36:01.745Z,25.50
2018-07-08T15:38:47.302Z,25.50
2018-07-08T15:41:28.636Z,25.20
2018-07-08T15:43:59.300Z,25.00
2018-07-08T15:46:33.460Z,25.00
2018-07-08T15:49:03.908Z,25.10
2018-07-08T15:51:36.300Z,25.10
2018-07-08T15:54:05.192Z,25.40
2018-07-08T15:56:39.276Z,25.60
2018-07-08T15:59:15.016Z,25.60
2018-07-08T16:01:49.519Z,25.50
2018-07-08T16:04:28.048Z,25.60
2018-07-08T16:07:02.818Z,25.40
2018-07-08T16:09:35.721Z,25.20
2018-07-08T16:12:07.894Z,25.20
2018-07-08T16:14:37.854Z,25.20
2018-07-08T16:17:08.362Z,25.20
2018-07-08T16:19:43.262Z,25.00
2018-07-08T16:22:11.858Z,25.20
2018-07-08T16:24:46.553Z,25.20
2018-07-08T16:27:24.306Z,25.20
2018-07-08T16:32:22.026Z,25.10
2018-07-08T16:34:51.648Z,25.20
2018-07-08T16:37:24.868Z,25.10
2018-07-08T16:39:55.014Z,25.10
2018-07-08T16:42:33.362Z,25.00
2018-07-08T16:45:03.894Z,24.90
2018-07-08T16:47:37.704Z,25.10
2018-07-08T16:50:07.336Z,25.00
2018-07-08T16:52:39.766Z,24.90
2018-07-08T16:55:08.470Z,24.70
2018-07-08T16:57:38.017Z,24.80
2018-07-08T17:00:12.295Z,24.90
2018-07-08T17:02:41.816Z,24.80
2018-07-08T17:05:15.797Z,24.60
2018-07-08T17:07:46.368Z,24.60
2018-07-08T17:10:15.188Z,24.70
2018-07-08T17:12:58.027Z,24.80
2018-07-08T17:15:29.934Z,24.70
2018-07-08T17:18:04.476Z,24.50
2018-07-08T17:20:33.412Z,24.50
2018-07-08T17:23:02.166Z,24.30
2018-07-08T17:25:31.004Z,24.20
2018-07-08T17:27:59.473Z,24.20
2018-07-08T17:30:29.160Z,24.20
2018-07-08T17:32:57.796Z,24.20
2018-07-08T17:35:28.384Z,24.10
2018-07-08T17:37:57.310Z,24.00
2018-07-08T17:40:26.023Z,24.00
2018-07-08T17:42:54.830Z,24.00
2018-07-08T17:45:26.684Z,24.00
2018-07-08T17:47:56.456Z,23.90
2018-07-08T17:50:28.987Z,23.70
2018-07-08T17:53:00.338Z,23.60
2018-07-08T17:55:41.356Z,23.60
2018-07-08T17:58:09.849Z,23.70
2018-07-08T18:00:38.492Z,23.70
2018-07-08T18:03:25.604Z,23.60
2018-07-08T18:06:04.740Z,23.60
2018-07-08T18:08:35.451Z,23.40
2018-07-08T18:11:05.224Z,23.20
2018-07-08T18:13:42.103Z,23.30
2018-07-08T18:16:13.809Z,23.30
2018-07-08T18:18:48.318Z,23.10
2018-07-08T18:21:21.471Z,23.00
2018-07-08T18:23:51.162Z,23.00
2018-07-08T18:26:19.831Z,23.00
2018-07-08T18:28:48.501Z,23.00
2018-07-08T18:31:23.642Z,22.90
2018-07-08T18:36:26.481Z,22.80
2018-07-08T18:38:57.072Z,22.70
2018-07-08T18:41:25.818Z,22.60
2018-07-08T18:43:54.476Z,22.60
2018-07-08T18:46:25.850Z,22.60
2018-07-08T18:48:56.479Z,22.60
2018-07-08T18:51:26.606Z,22.50
2018-07-08T18:53:55.399Z,22.40
2018-07-08T18:58:56.546Z,22.30
2018-07-08T19:01:26.559Z,22.30
2018-07-08T19:03:57.425Z,22.20
2018-07-08T19:06:28.032Z,22.20
2018-07-08T19:09:01.644Z,22.10
2018-07-08T19:11:34.405Z,22.00
2018-07-08T19:16:43.541Z,21.80
2018-07-08T19:19:12.594Z,21.70
2018-07-08T19:21:41.250Z,21.60
2018-07-08T19:24:16.973Z,21.60
2018-07-08T19:26:50.954Z,21.60
2018-07-08T19:29:22.022Z,21.50
2018-07-08T19:31:52.313Z,21.40
2018-07-08T19:34:21.053Z,21.30
2018-07-08T19:36:50.724Z,21.30
2018-07-08T19:39:22.868Z,21.20
2018-07-08T19:41:53.799Z,21.20
2018-07-08T19:44:22.854Z,21.20
2018-07-08T19:46:51.595Z,21.10
2018-07-08T19:49:20.314Z,21.00
2018-07-08T19:51:54.349Z,20.90
2018-07-08T19:54:35.926Z,20.80
2018-07-08T19:57:05.808Z,20.80
2018-07-08T19:59:35.664Z,20.80
2018-07-08T20:02:04.252Z,20.70
2018-07-08T20:04:33.119Z,20.60
2018-07-08T20:07:01.848Z,20.60
2018-07-08T20:09:30.614Z,20.50
2018-07-08T20:11:59.673Z,20.50
2018-07-08T20:14:28.345Z,20.50
2018-07-08T20:17:02.606Z,20.40
2018-07-08T20:19:33.422Z,20.40
2018-07-08T20:22:02.308Z,20.30
2018-07-08T20:24:32.826Z,20.30
2018-07-08T20:29:37.873Z,20.20
2018-07-08T20:34:35.540Z,20.00
2018-07-08T20:37:05.070Z,20.00
2018-07-08T20:39:39.874Z,19.90
2018-07-08T20:42:09.702Z,19.90
2018-07-08T20:44:38.317Z,19.80
2018-07-08T20:49:35.374Z,19.70
2018-07-08T20:52:08.003Z,19.70
2018-07-08T20:54:38.669Z,19.70
2018-07-08T20:57:07.333Z,19.60
2018-07-08T20:59:39.435Z,19.60
2018-07-08T21:02:08.127Z,19.50
2018-07-08T21:04:37.729Z,19.50
2018-07-08T21:07:06.465Z,19.40
2018-07-08T21:09:36.139Z,19.40
2018-07-08T21:12:05.943Z,19.40
2018-07-08T21:17:03.980Z,19.30
2018-07-08T21:19:34.893Z,19.20
2018-07-08T21:22:04.635Z,19.20
2018-07-08T21:24:51.755Z,19.10
2018-07-08T21:27:20.511Z,19.10
2018-07-08T21:29:49.000Z,19.10
2018-07-08T21:32:21.127Z,19.10
2018-07-08T21:34:50.181Z,19.00
2018-07-08T21:40:12.420Z,18.90
2018-07-08T21:42:47.180Z,18.80
2018-07-08T21:45:16.881Z,18.70
2018-07-08T21:50:17.219Z,18.50
2018-07-08T21:52:56.066Z,18.40
2018-07-08T21:55:36.692Z,18.40
2018-07-08T21:58:06.181Z,18.40
2018-07-08T22:00:34.777Z,18.30
2018-07-08T22:03:03.539Z,18.30
2018-07-08T22:05:32.958Z,18.20
2018-07-08T22:08:09.080Z,18.20
2018-07-08T22:10:37.809Z,18.10
2018-07-08T22:15:42.926Z,18.00
2018-07-08T22:18:22.885Z,18.00
2018-07-08T22:20:53.449Z,17.90
2018-07-08T22:25:51.661Z,17.90
2018-07-08T22:28:21.558Z,17.80
2018-07-08T22:30:52.242Z,17.80
2018-07-08T22:33:21.849Z,17.70
2018-07-08T22:35:50.467Z,17.70
2018-07-08T22:38:19.365Z,17.70
2018-07-08T22:40:54.051Z,17.70
2018-07-08T22:43:23.562Z,17.60
2018-07-08T22:45:53.137Z,17.50
2018-07-08T22:48:21.696Z,17.50
2018-07-08T22:50:57.273Z,17.50
2018-07-08T22:53:32.041Z,17.50
2018-07-08T22:56:00.856Z,17.40
2018-07-08T22:58:37.405Z,17.40
2018-07-08T23:01:25.205Z,17.40
2018-07-08T23:04:11.612Z,17.30
2018-07-08T23:06:40.379Z,17.30
2018-07-08T23:09:21.994Z,17.30
2018-07-08T23:12:14.719Z,17.20
2018-07-08T23:14:44.353Z,17.10
2018-07-08T23:17:18.533Z,17.10
2018-07-08T23:22:34.732Z,17.00
2018-07-08T23:25:09.400Z,17.00
2018-07-08T23:27:38.164Z,17.00
2018-07-08T23:30:11.705Z,16.90
2018-07-08T23:32:40.506Z,16.90
2018-07-08T23:35:09.169Z,16.90
2018-07-08T23:37:39.655Z,16.80
2018-07-08T23:40:09.287Z,16.80
2018-07-08T23:42:38.931Z,16.80
2018-07-08T23:45:08.481Z,16.70
2018-07-08T23:47:44.226Z,16.70
2018-07-08T23:50:15.236Z,16.70
2018-07-08T23:52:45.057Z,16.70
2018-07-08T23:58:06.906Z,16.70
